createdAt,value
2024-01-10T00:00:51.586Z,69.00
2024-01-10T00:03:19.118Z,59.97
2024-01-10T00:05:46.179Z,69.27
2024-01-10T00:08:13.401Z,60.10
2024-01-10T00:10:40.633Z,65.77
2024-01-10T00:13:07.985Z,67.73
2024-01-10T00:15:35.474Z,68.37
2024-01-10T00:18:02.415Z,69.60
2024-01-10T00:20:29.718Z,64.80
2024-01-10T00:22:56.815Z,58.67
2024-01-10T00:25:24.120Z,61.13
2024-01-10T00:27:50.962Z,59.00
2024-01-10T00:30:17.967Z,59.40
2024-01-10T00:32:44.889Z,61.77
2024-01-10T00:35:12.664Z,56.57
2024-01-10T00:37:39.841Z,54.57
2024-01-10T00:40:07.344Z,57.27
2024-01-10T00:42:34.539Z,56.57
2024-01-10T00:45:01.732Z,61.60
2024-01-10T00:47:28.842Z,56.13
2024-01-10T00:49:56.692Z,52.73
2024-01-10T00:52:23.699Z,65.67
2024-01-10T00:54:50.621Z,62.03
2024-01-10T00:57:17.619Z,46.37
2024-01-10T00:59:44.483Z,53.20
2024-01-10T01:02:11.846Z,63.63
2024-01-10T01:04:38.999Z,63.50
2024-01-10T01:07:07.136Z,60.00
2024-01-10T01:09:35.176Z,52.37
2024-01-10T01:12:02.101Z,68.10
2024-01-10T01:14:29.242Z,69.87
2024-01-10T01:16:56.121Z,55.60
2024-01-10T01:19:23.379Z,62.63
2024-01-10T01:21:50.235Z,55.20
2024-01-10T01:24:17.089Z,62.97
2024-01-10T01:26:44.962Z,67.93
2024-01-10T01:29:12.232Z,68.83
2024-01-10T01:31:39.653Z,58.73
2024-01-10T01:34:06.656Z,61.27
2024-01-10T01:36:35.297Z,64.17
2024-01-10T01:39:02.203Z,60.13
2024-01-10T01:41:30.540Z,62.37
2024-01-10T01:43:57.613Z,56.10
2024-01-10T01:46:25.136Z,55.97
2024-01-10T01:48:54.219Z,50.43
2024-01-10T01:51:23.271Z,59.67
2024-01-10T01:53:51.304Z,62.20
2024-01-10T01:56:18.783Z,61.53
2024-01-10T01:58:47.697Z,60.87
2024-01-10T02:01:15.201Z,68.97
2024-01-10T02:03:42.526Z,69.67
2024-01-10T02:06:09.627Z,51.23
2024-01-10T02:08:37.128Z,60.67
2024-01-10T02:11:05.039Z,62.90
2024-01-10T02:13:35.568Z,71.93
2024-01-10T02:16:04.636Z,59.73
2024-01-10T02:18:31.793Z,41.90
2024-01-10T02:20:59.190Z,65.37
2024-01-10T02:23:27.351Z,61.27
2024-01-10T02:25:54.525Z,62.23
2024-01-10T02:28:21.449Z,68.00
2024-01-10T02:30:48.746Z,59.80
2024-01-10T02:33:15.833Z,77.93
2024-01-10T02:35:43.029Z,62.47
2024-01-10T02:38:11.181Z,57.93
2024-01-10T02:40:38.334Z,64.50
2024-01-10T02:43:05.491Z,39.90
2024-01-10T02:45:32.541Z,65.00
2024-01-10T02:47:59.942Z,59.80
2024-01-10T02:50:27.156Z,62.50
2024-01-10T02:52:54.514Z,59.93
2024-01-10T02:55:21.517Z,45.37
2024-01-10T02:57:48.717Z,54.30
2024-01-10T03:00:15.729Z,64.60
2024-01-10T03:02:42.967Z,47.50
2024-01-10T03:05:10.698Z,40.70
2024-01-10T03:07:37.922Z,55.60
2024-01-10T03:10:05.128Z,52.03
2024-01-10T03:12:32.182Z,46.43
2024-01-10T03:14:59.952Z,55.03
2024-01-10T03:17:28.023Z,52.77
2024-01-10T03:19:55.120Z,54.30
2024-01-10T03:22:22.266Z,49.60
2024-01-10T03:24:49.120Z,47.07
2024-01-10T03:27:16.382Z,48.90
2024-01-10T03:29:43.406Z,48.80
2024-01-10T03:32:10.734Z,50.07
2024-01-10T03:34:37.739Z,39.80
2024-01-10T03:37:04.917Z,41.03
2024-01-10T03:39:32.017Z,42.57
2024-01-10T03:41:59.154Z,37.77
2024-01-10T03:44:27.881Z,41.77
2024-01-10T03:46:56.153Z,47.20
2024-01-10T03:49:23.067Z,48.97
2024-01-10T03:51:50.282Z,53.83
2024-01-10T03:54:17.392Z,56.00
2024-01-10T03:56:44.529Z,48.33
2024-01-10T03:59:11.870Z,51.90
2024-01-10T04:01:40.702Z,56.57
2024-01-10T04:04:07.666Z,56.27
2024-01-10T04:06:35.845Z,51.63
2024-01-10T04:09:03.778Z,51.10
2024-01-10T04:11:30.874Z,53.87
2024-01-10T04:13:58.133Z,56.93
2024-01-10T04:16:25.030Z,58.70
2024-01-10T04:18:52.073Z,62.03
2024-01-10T04:21:19.174Z,65.63
2024-01-10T04:23:46.029Z,84.00
2024-01-10T04:26:13.276Z,73.33
2024-01-10T04:28:42.609Z,67.13
2024-01-10T04:31:09.640Z,75.27
2024-01-10T04:33:37.558Z,72.07
2024-01-10T04:36:04.864Z,90.33
2024-01-10T04:38:33.093Z,74.23
2024-01-10T04:41:00.209Z,84.33
2024-01-10T04:43:27.172Z,73.57
2024-01-10T04:45:54.283Z,82.73
2024-01-10T04:48:21.272Z,68.87
2024-01-10T04:50:48.288Z,81.63
2024-01-10T04:53:15.662Z,81.70
2024-01-10T04:55:42.695Z,92.93
2024-01-10T04:58:09.760Z,74.33
2024-01-10T05:00:36.966Z,78.90
2024-01-10T05:03:04.007Z,75.43
2024-01-10T05:05:31.195Z,65.00
2024-01-10T05:07:58.431Z,60.97
2024-01-10T05:10:25.560Z,62.93
2024-01-10T05:12:52.478Z,66.33
2024-01-10T05:15:19.619Z,82.13
2024-01-10T05:17:46.705Z,85.40
2024-01-10T05:20:14.797Z,74.27
2024-01-10T05:22:42.313Z,66.00
2024-01-10T05:25:09.572Z,64.83
2024-01-10T05:27:36.626Z,73.00
2024-01-10T05:30:04.033Z,68.33
2024-01-10T05:32:31.542Z,65.73
2024-01-10T05:34:58.509Z,61.67
2024-01-10T05:37:25.407Z,65.07
2024-01-10T05:39:52.241Z,58.70
2024-01-10T05:42:20.603Z,56.10
2024-01-10T05:44:48.633Z,53.53
2024-01-10T05:47:16.013Z,63.37
2024-01-10T05:49:43.890Z,56.90
2024-01-10T05:52:10.894Z,48.20
2024-01-10T05:54:38.017Z,62.63
2024-01-10T05:57:05.353Z,65.57
2024-01-10T05:59:32.503Z,55.50
2024-01-10T06:02:00.159Z,63.87
2024-01-10T06:04:29.139Z,79.67
2024-01-10T06:06:56.267Z,56.07
2024-01-10T06:09:23.626Z,60.77
2024-01-10T06:11:51.044Z,61.77
2024-01-10T06:14:18.584Z,53.57
2024-01-10T06:16:46.462Z,49.83
2024-01-10T06:19:13.768Z,59.40
2024-01-10T06:21:41.017Z,57.70
2024-01-10T06:24:09.473Z,53.93
2024-01-10T06:26:36.355Z,55.03
2024-01-10T06:29:03.533Z,57.37
2024-01-10T06:31:30.464Z,45.87
2024-01-10T06:33:57.439Z,51.67
2024-01-10T06:36:24.553Z,53.40
2024-01-10T06:38:51.516Z,47.80
2024-01-10T06:41:18.494Z,50.50
2024-01-10T06:43:45.556Z,56.50
2024-01-10T06:46:13.043Z,43.23
2024-01-10T06:48:42.622Z,53.53
2024-01-10T06:51:19.460Z,44.47
2024-01-10T06:53:46.463Z,43.83
2024-01-10T06:56:14.436Z,47.93
2024-01-10T06:58:41.467Z,43.00
2024-01-10T07:01:15.491Z,49.47
2024-01-10T07:03:43.144Z,45.83
2024-01-10T07:06:10.272Z,44.60
2024-01-10T07:08:37.414Z,43.40
2024-01-10T07:11:04.538Z,38.00
2024-01-10T07:13:32.662Z,46.57
2024-01-10T07:16:03.265Z,46.17
2024-01-10T07:18:34.411Z,49.47
2024-01-10T07:21:01.653Z,26.30
2024-01-10T07:23:28.877Z,43.73
2024-01-10T07:25:55.868Z,39.07
2024-01-10T07:28:22.733Z,49.27
2024-01-10T07:30:49.625Z,38.63
2024-01-10T07:33:17.148Z,42.07
2024-01-10T07:35:44.376Z,41.03
2024-01-10T07:38:11.447Z,39.10
2024-01-10T07:40:38.380Z,36.30
2024-01-10T07:43:05.876Z,37.97
2024-01-10T07:45:32.743Z,33.57
2024-01-10T07:47:59.855Z,41.17
2024-01-10T07:50:29.421Z,31.13
2024-01-10T07:52:56.856Z,43.33
2024-01-10T07:55:23.782Z,36.97
2024-01-10T07:57:50.809Z,41.70
2024-01-10T08:00:18.165Z,43.00
2024-01-10T08:02:45.211Z,43.93
2024-01-10T08:05:14.033Z,40.00
2024-01-10T08:07:41.166Z,42.17
2024-01-10T08:10:10.515Z,41.20
2024-01-10T08:12:42.519Z,51.50
2024-01-10T08:15:09.603Z,45.00
2024-01-10T08:17:38.912Z,39.60
2024-01-10T08:20:09.766Z,51.97
2024-01-10T08:22:36.982Z,45.60
2024-01-10T08:25:04.371Z,42.93
2024-01-10T08:27:31.383Z,47.53
2024-01-10T08:29:58.528Z,39.40
2024-01-10T08:32:25.956Z,56.63
2024-01-10T08:34:52.905Z,41.23
2024-01-10T08:37:20.024Z,45.87
2024-01-10T08:39:47.159Z,40.60
2024-01-10T08:42:14.249Z,56.70
2024-01-10T08:44:41.162Z,46.50
2024-01-10T08:47:08.355Z,49.60
2024-01-10T08:49:35.211Z,48.03
2024-01-10T08:52:02.169Z,44.47
2024-01-10T08:54:30.088Z,51.77
2024-01-10T08:56:57.375Z,49.67
2024-01-10T08:59:25.316Z,51.07
2024-01-10T09:01:53.389Z,55.40
2024-01-10T09:04:21.173Z,54.83
2024-01-10T09:06:48.763Z,51.20
2024-01-10T09:09:15.751Z,54.03
2024-01-10T09:11:44.278Z,61.50
2024-01-10T09:14:13.081Z,53.03
2024-01-10T09:16:40.087Z,57.40
2024-01-10T09:19:11.083Z,48.40
2024-01-10T09:21:38.784Z,59.83
2024-01-10T09:24:18.364Z,56.10
2024-01-10T09:26:54.900Z,64.20
2024-01-10T09:29:22.518Z,57.80
2024-01-10T09:31:49.663Z,48.47
2024-01-10T09:34:20.534Z,47.77
2024-01-10T09:36:48.439Z,52.33
2024-01-10T09:39:18.006Z,55.00
2024-01-10T09:41:54.213Z,38.13
2024-01-10T09:44:23.221Z,37.67
2024-01-10T09:46:56.153Z,42.23
2024-01-10T09:49:23.994Z,56.43
2024-01-10T09:51:54.580Z,42.33
2024-01-10T09:54:25.646Z,40.90
2024-01-10T09:56:52.784Z,49.53
2024-01-10T09:59:21.094Z,41.03
2024-01-10T10:01:48.487Z,33.97
2024-01-10T10:04:19.367Z,41.70
2024-01-10T10:06:47.051Z,43.30
2024-01-10T10:09:15.333Z,46.77
2024-01-10T10:11:42.351Z,60.50
2024-01-10T10:14:20.286Z,47.33
2024-01-10T10:16:47.375Z,27.77
2024-01-10T10:19:30.158Z,28.60
2024-01-10T10:22:10.615Z,57.13
2024-01-10T10:24:37.803Z,43.17
2024-01-10T10:27:13.022Z,30.73
2024-01-10T10:29:40.793Z,38.77
2024-01-10T10:32:10.098Z,46.03
2024-01-10T10:34:37.147Z,45.33
2024-01-10T10:37:04.369Z,27.80
2024-01-10T10:39:31.384Z,48.90
2024-01-10T10:41:59.240Z,54.50
2024-01-10T10:44:28.570Z,41.13
2024-01-10T10:47:11.677Z,58.93
2024-01-10T10:49:54.099Z,57.30
2024-01-10T10:52:22.933Z,59.33
2024-01-10T10:54:51.789Z,55.57
2024-01-10T10:57:21.425Z,59.13
2024-01-10T10:59:50.940Z,39.43
2024-01-10T11:02:30.498Z,49.40
2024-01-10T11:05:00.832Z,61.20
2024-01-10T11:07:28.876Z,40.27
2024-01-10T11:09:56.935Z,55.87
2024-01-10T11:12:32.828Z,60.40
2024-01-10T11:15:25.001Z,58.40
2024-01-10T11:17:58.185Z,57.33
2024-01-10T11:20:49.026Z,58.43
2024-01-10T11:23:31.157Z,50.07
2024-01-10T11:25:59.829Z,30.57
2024-01-10T11:28:28.845Z,62.60
2024-01-10T11:30:58.222Z,55.90
2024-01-10T11:33:26.680Z,60.63
2024-01-10T11:36:15.897Z,53.73
2024-01-10T11:38:59.004Z,62.13
2024-01-10T11:41:26.438Z,41.53
2024-01-10T11:44:16.797Z,55.43
2024-01-10T11:46:47.289Z,39.27
2024-01-10T11:49:18.711Z,32.23
2024-01-10T11:51:49.198Z,48.03
2024-01-10T11:54:44.905Z,47.47
2024-01-10T11:57:22.940Z,44.70
2024-01-10T11:59:57.532Z,43.40
2024-01-10T12:02:27.741Z,52.63
2024-01-10T12:04:56.810Z,47.17
2024-01-10T12:07:25.353Z,46.13
2024-01-10T12:09:52.408Z,51.53
2024-01-10T12:12:19.890Z,52.53
2024-01-10T12:14:49.806Z,49.47
2024-01-10T12:17:17.664Z,30.87
2024-01-10T12:19:47.216Z,31.60
2024-01-10T12:22:17.140Z,47.43
2024-01-10T12:24:46.706Z,44.70
2024-01-10T12:27:13.839Z,50.17
2024-01-10T12:29:41.301Z,46.10
2024-01-10T12:32:13.281Z,44.33
2024-01-10T12:34:41.537Z,40.37
2024-01-10T12:37:08.658Z,35.77
2024-01-10T12:39:35.782Z,42.80
2024-01-10T12:42:03.112Z,29.37
2024-01-10T12:44:33.528Z,37.93
2024-01-10T12:47:01.486Z,30.23
2024-01-10T12:49:28.597Z,47.53
2024-01-10T12:51:56.045Z,46.67
2024-01-10T12:54:23.392Z,43.57
2024-01-10T12:56:51.622Z,49.97
2024-01-10T12:59:19.821Z,37.87
2024-01-10T13:01:47.090Z,50.87
2024-01-10T13:04:14.502Z,33.23
2024-01-10T13:06:41.914Z,43.90
2024-01-10T13:09:10.644Z,46.00
2024-01-10T13:11:38.184Z,39.90
2024-01-10T13:14:05.099Z,27.27
2024-01-10T13:16:35.019Z,48.40
2024-01-10T13:19:06.759Z,58.07
2024-01-10T13:21:33.692Z,62.93
2024-01-10T13:24:00.753Z,40.53
2024-01-10T13:26:27.896Z,35.60
2024-01-10T13:28:54.761Z,43.77
2024-01-10T13:31:21.858Z,42.07
2024-01-10T13:33:49.094Z,41.77
2024-01-10T13:36:16.101Z,50.57
2024-01-10T13:38:43.296Z,46.03
2024-01-10T13:41:10.599Z,50.70
2024-01-10T13:43:37.766Z,53.77
2024-01-10T13:46:09.511Z,57.03
2024-01-10T13:48:37.407Z,53.00
2024-01-10T13:51:04.439Z,55.87
2024-01-10T13:53:31.627Z,44.00
2024-01-10T13:55:58.670Z,59.03
2024-01-10T13:58:25.753Z,53.77
2024-01-10T14:00:53.074Z,64.50
2024-01-10T14:03:20.223Z,52.03
2024-01-10T14:05:47.385Z,76.77
2024-01-10T14:08:14.480Z,81.57
2024-01-10T14:10:43.451Z,61.23
2024-01-10T14:13:10.801Z,69.20
2024-01-10T14:15:37.825Z,64.00
2024-01-10T14:18:05.930Z,60.50
2024-01-10T14:20:34.063Z,59.07
2024-01-10T14:23:01.982Z,54.63
2024-01-10T14:25:29.897Z,60.73
2024-01-10T14:27:56.887Z,68.57
2024-01-10T14:30:26.354Z,68.37
2024-01-10T14:32:53.904Z,58.57
2024-01-10T14:35:21.632Z,58.67
2024-01-10T14:37:49.002Z,58.73
2024-01-10T14:40:16.827Z,60.23
2024-01-10T14:42:43.833Z,50.43
2024-01-10T14:45:12.169Z,53.80
2024-01-10T14:47:42.751Z,54.80
2024-01-10T14:50:10.202Z,48.63
2024-01-10T14:52:37.111Z,52.37
2024-01-10T14:55:06.178Z,54.97
2024-01-10T14:57:34.277Z,55.53
2024-01-10T15:00:01.613Z,46.57
2024-01-10T15:02:28.889Z,51.63
2024-01-10T15:04:56.344Z,54.67
2024-01-10T15:07:23.391Z,58.93
2024-01-10T15:09:50.579Z,55.77
2024-01-10T15:12:19.051Z,59.60
2024-01-10T15:14:46.101Z,66.93
2024-01-10T15:17:14.210Z,49.73
2024-01-10T15:19:42.149Z,51.57
2024-01-10T15:22:12.063Z,59.60
2024-01-10T15:24:39.931Z,56.93
2024-01-10T15:27:12.091Z,62.50
2024-01-10T15:29:41.227Z,65.23
2024-01-10T15:32:09.506Z,63.27
2024-01-10T15:34:36.877Z,62.67
2024-01-10T15:37:04.307Z,70.90
2024-01-10T15:39:31.803Z,59.50
2024-01-10T15:41:59.047Z,68.77
2024-01-10T15:44:26.194Z,58.93
2024-01-10T15:46:53.356Z,61.53
2024-01-10T15:49:20.783Z,65.97
2024-01-10T15:51:50.074Z,69.07
2024-01-10T15:54:17.802Z,63.33
2024-01-10T15:56:45.028Z,60.53
2024-01-10T15:59:14.132Z,67.60
2024-01-10T16:01:41.391Z,62.37
2024-01-10T16:04:08.782Z,60.83
2024-01-10T16:06:37.438Z,60.87
2024-01-10T16:09:05.181Z,54.47
2024-01-10T16:11:33.146Z,60.77
2024-01-10T16:14:00.387Z,53.43
2024-01-10T16:16:31.446Z,63.83
2024-01-10T16:19:01.013Z,75.23
2024-01-10T16:21:27.993Z,67.13
2024-01-10T16:23:55.245Z,60.03
2024-01-10T16:26:22.643Z,73.70
2024-01-10T16:28:50.051Z,68.67
2024-01-10T16:31:18.361Z,63.93
2024-01-10T16:33:45.350Z,49.57
2024-01-10T16:36:12.677Z,66.63
2024-01-10T16:38:41.174Z,65.97
2024-01-10T16:41:09.122Z,69.07
2024-01-10T16:43:36.848Z,61.37
2024-01-10T16:46:04.420Z,49.27
2024-01-10T16:48:31.640Z,51.20
2024-01-10T16:51:00.113Z,63.03
2024-01-10T16:53:28.932Z,62.67
2024-01-10T16:55:59.837Z,56.63
2024-01-10T16:58:27.142Z,57.70
2024-01-10T17:00:57.132Z,64.17
2024-01-10T17:03:24.293Z,61.87
2024-01-10T17:05:51.782Z,70.83
2024-01-10T17:08:19.077Z,60.37
2024-01-10T17:10:46.139Z,62.33
2024-01-10T17:13:13.622Z,59.33
2024-01-10T17:15:40.646Z,57.60
2024-01-10T17:18:08.037Z,62.03
2024-01-10T17:20:36.644Z,61.93
2024-01-10T17:23:04.084Z,67.00
2024-01-10T17:25:31.001Z,68.97
2024-01-10T17:27:57.905Z,66.50
2024-01-10T17:30:25.094Z,67.50
2024-01-10T17:32:52.078Z,72.53
2024-01-10T17:35:19.177Z,68.93
2024-01-10T17:37:46.664Z,87.07
2024-01-10T17:40:14.785Z,64.03
2024-01-10T17:42:41.934Z,81.33
2024-01-10T17:45:10.207Z,75.03
2024-01-10T17:47:37.928Z,78.57
2024-01-10T17:50:05.755Z,86.23
2024-01-10T17:52:32.959Z,67.30
2024-01-10T17:55:00.248Z,100.07
2024-01-10T17:57:28.834Z,91.37
2024-01-10T17:59:56.972Z,97.67
2024-01-10T18:02:24.553Z,125.87
2024-01-10T18:04:51.875Z,150.40
2024-01-10T18:07:18.905Z,101.17
2024-01-10T18:09:46.050Z,87.03
2024-01-10T18:12:13.224Z,84.83
2024-01-10T18:14:40.173Z,86.17
2024-01-10T18:17:07.115Z,88.03
2024-01-10T18:19:34.335Z,84.53
2024-01-10T18:22:01.578Z,81.50
2024-01-10T18:24:28.649Z,84.07
2024-01-10T18:26:55.779Z,72.80
2024-01-10T18:29:22.659Z,96.07
2024-01-10T18:31:50.634Z,92.27
2024-01-10T18:34:17.769Z,92.83
2024-01-10T18:36:44.792Z,99.03
2024-01-10T18:39:14.214Z,92.90
2024-01-10T18:41:42.454Z,88.63
2024-01-10T18:44:09.878Z,90.70
2024-01-10T18:46:38.116Z,93.47
2024-01-10T18:49:06.555Z,91.13
2024-01-10T18:51:33.857Z,90.33
2024-01-10T18:54:01.364Z,81.90
2024-01-10T18:56:28.563Z,80.37
2024-01-10T18:58:55.848Z,81.53
2024-01-10T19:03:50.022Z,86.73
2024-01-10T19:06:17.340Z,65.23
2024-01-10T19:08:44.632Z,75.20
2024-01-10T19:11:11.896Z,87.07
2024-01-10T19:13:41.866Z,70.90
2024-01-10T19:16:13.081Z,88.47
2024-01-10T19:18:40.430Z,86.30
2024-01-10T19:21:07.748Z,85.47
2024-01-10T19:23:35.261Z,81.33
2024-01-10T19:26:02.311Z,79.67
2024-01-10T19:28:29.426Z,93.10
2024-01-10T19:30:58.463Z,89.30
2024-01-10T19:33:25.856Z,84.13
2024-01-10T19:35:53.098Z,106.47
2024-01-10T19:38:20.325Z,98.40
2024-01-10T19:40:48.505Z,86.37
2024-01-10T19:43:25.454Z,88.90
2024-01-10T19:45:52.360Z,97.93
2024-01-10T19:48:20.835Z,108.57
2024-01-10T19:50:48.110Z,104.10
2024-01-10T19:53:15.198Z,103.27
2024-01-10T19:55:42.685Z,103.60
2024-01-10T19:58:10.137Z,97.37
2024-01-10T20:00:37.497Z,112.60
2024-01-10T20:03:05.123Z,110.13
2024-01-10T20:05:32.157Z,118.80
2024-01-10T20:07:59.354Z,101.97
2024-01-10T20:10:26.368Z,126.30
2024-01-10T20:12:53.294Z,156.97
2024-01-10T20:15:20.497Z,178.87
2024-01-10T20:17:47.575Z,153.10
2024-01-10T20:20:16.423Z,144.70
2024-01-10T20:22:47.185Z,142.97
2024-01-10T20:25:16.063Z,135.27
2024-01-10T20:27:43.404Z,141.27
2024-01-10T20:30:10.592Z,129.50
2024-01-10T20:32:40.000Z,151.57
2024-01-10T20:35:07.522Z,108.97
2024-01-10T20:37:35.589Z,119.57
2024-01-10T20:40:07.224Z,118.10
2024-01-10T20:42:34.340Z,123.57
2024-01-10T20:45:01.439Z,115.57
2024-01-10T20:47:28.810Z,119.67
2024-01-10T20:49:57.035Z,122.90
2024-01-10T20:52:24.605Z,124.27
2024-01-10T20:54:53.650Z,115.37
2024-01-10T20:57:20.950Z,114.07
2024-01-10T20:59:48.299Z,117.70
2024-01-10T21:02:15.931Z,111.50
2024-01-10T21:04:43.250Z,110.63
2024-01-10T21:07:13.582Z,112.53
2024-01-10T21:09:44.792Z,135.73
2024-01-10T21:12:12.825Z,136.27
2024-01-10T21:14:44.872Z,127.23
2024-01-10T21:17:13.498Z,117.70
2024-01-10T21:19:41.785Z,116.07
2024-01-10T21:22:09.155Z,113.13
2024-01-10T21:24:38.059Z,121.43
2024-01-10T21:27:05.840Z,116.70
2024-01-10T21:29:32.945Z,118.23
2024-01-10T21:32:00.274Z,119.00
2024-01-10T21:34:27.635Z,114.67
2024-01-10T21:36:55.556Z,112.27
2024-01-10T21:39:25.669Z,108.97
2024-01-10T21:41:53.192Z,115.47
2024-01-10T21:44:23.067Z,109.23
2024-01-10T21:46:51.231Z,111.07
2024-01-10T21:49:18.241Z,99.17
2024-01-10T21:51:45.438Z,99.50
2024-01-10T21:54:12.784Z,105.40
2024-01-10T21:56:39.885Z,97.87
2024-01-10T21:59:08.144Z,94.10
2024-01-10T22:01:35.282Z,93.67
2024-01-10T22:04:02.503Z,87.87
2024-01-10T22:06:29.558Z,93.33
2024-01-10T22:08:56.485Z,95.97
2024-01-10T22:11:24.153Z,84.47
2024-01-10T22:13:52.203Z,90.47
2024-01-10T22:16:20.655Z,99.13
2024-01-10T22:18:47.932Z,77.33
2024-01-10T22:21:15.165Z,93.07
2024-01-10T22:23:42.120Z,88.60
2024-01-10T22:26:09.411Z,93.03
2024-01-10T22:28:36.392Z,78.10
2024-01-10T22:31:06.736Z,91.93
2024-01-10T22:33:33.938Z,88.57
2024-01-10T22:36:00.925Z,79.37
2024-01-10T22:38:28.147Z,94.23
2024-01-10T22:40:55.290Z,97.30
2024-01-10T22:43:22.455Z,71.13
2024-01-10T22:45:49.608Z,95.90
2024-01-10T22:48:18.622Z,90.53
2024-01-10T22:50:47.860Z,93.43
2024-01-10T22:53:15.275Z,96.20
2024-01-10T22:55:42.276Z,76.90
2024-01-10T22:58:09.808Z,108.47
2024-01-10T23:00:36.841Z,86.80
2024-01-10T23:03:04.104Z,90.57
2024-01-10T23:05:31.027Z,90.27
2024-01-10T23:07:58.065Z,96.63
2024-01-10T23:10:25.767Z,98.60
2024-01-10T23:12:52.686Z,93.67
2024-01-10T23:15:19.804Z,92.50
2024-01-10T23:17:48.234Z,91.63
2024-01-10T23:20:15.487Z,79.67
2024-01-10T23:22:42.414Z,91.03
2024-01-10T23:25:11.669Z,75.47
2024-01-10T23:27:40.210Z,81.50
2024-01-10T23:30:09.468Z,92.60
2024-01-10T23:32:38.347Z,93.80
2024-01-10T23:35:05.903Z,101.07
2024-01-10T23:37:33.129Z,82.57
2024-01-10T23:40:00.235Z,90.10
2024-01-10T23:42:27.312Z,98.17
2024-01-10T23:44:54.219Z,97.00
2024-01-10T23:47:21.219Z,89.93
2024-01-10T23:49:49.728Z,92.67
2024-01-10T23:52:16.925Z,91.57
2024-01-10T23:54:43.848Z,77.47
2024-01-10T23:57:10.783Z,96.13
2024-01-10T23:59:39.563Z,89.77
